ADDS METAR Data INFO
IDs: Format: Raw Decoded Include TAF

Data at: 1244 UTC 19 Oct 2017

PAWI 191230Z AUTO 03008KT 2 1/2SM -SN BR OVC027 M05/M06 A2923 RMK AO2 P0000 T10501056 TSNO
PAWI 191210Z AUTO 03011KT 1 1/2SM -SN BR OVC016 M05/M06 A2923 RMK AO2 P0000 T10501056 TSNO
PAWI 191203Z AUTO 03010KT 3/4SM -SN BR BKN012 OVC019 M05/M06 A2923 RMK AO2 P0000 T10501056 TSNO
PAWI 191153Z AUTO 03011KT 1SM -SN BR VV013 M05/M06 A2923 RMK AO2 SLP900 P0000 60007 70010 T10501056 11022 21050 56002 TSNO
PAWI 191144Z AUTO 03010KT 1SM -SN BR BKN011 OVC017 M05/M06 A2923 RMK AO2 P0000 T10501056 TSNO
PAWI 191053Z AUTO 03012KT 3/4SM -SN BR VV008 M04/M05 A2923 RMK AO2 SLP900 P0000 T10441050 TSNO
PAWI 190953Z AUTO 04009KT 1/2SM SN FZFG VV005 M04/M04 A2923 RMK AO2 SLP899 P0002 T10441044 TSNO
PAWI 190943Z AUTO 05011KT 1/2SM SN FZFG BKN005 OVC015 M04/M04 A2923 RMK AO2 P0002 T10391044 TSNO
PAWI 190933Z AUTO 03009KT 3/4SM -SN BR SCT007 BKN015 OVC025 M03/M05 A2923 RMK AO2 P0001 T10331050 TSNO
PAWI 190927Z AUTO 35003KT 2SM -SN BR FEW007 BKN015 OVC046 M03/M04 A2924 RMK AO2 P0000 T10281044 TSNO
PAWI 190916Z AUTO VRB03KT 7SM -SN FEW017 BKN024 OVC050 M03/M04 A2924 RMK AO2 P0000 T10281044 TSNO
PAWI 190853Z AUTO 24008KT 9SM -SN FEW024 BKN050 OVC090 M02/M06 A2924 RMK AO2 SNE0756B50 SLP902 P0000 60005 T10221061 410221078 58017 TSNO
PAWI 190753Z AUTO 29008KT 5SM -SN BR OVC033 M03/M04 A2926 RMK AO2 SNE30B35 SLP909 P0002 T10281044 TSNO
PAWI 190751Z AUTO 29009KT 3SM -SN BR OVC029 M03/M04 A2926 RMK AO2 SNE30B35 P0002 TSNO
PAWI 190744Z AUTO 29010KT 1SM -SN BR VV020 M03/M04 A2926 RMK AO2 SNE30B35 P0002 T10281039 TSNO
PAWI 190737Z AUTO 28007KT 2 1/2SM -SN BR FEW018 OVC028 M03/M04 A2927 RMK AO2 SNE30B35 P0000 T10281039 TSNO
PAWI 190733Z AUTO 26006KT 9SM FEW018 FEW024 OVC034 M03/M04 A2927 RMK AO2 SNE30 P0000 T10281039 TSNO
PAWI 190725Z AUTO 29006KT 2SM -SN BR FEW011 SCT018 OVC030 M03/M04 A2927 RMK AO2 P0000 T10331044 TSNO
PAWI 190717Z AUTO 30011G18KT 1 3/4SM -SN BR FEW011 SCT017 OVC025 M03/M04 A2927 RMK AO2 P0000 T10281044 TSNO
PAWI 190711Z AUTO 26009KT 7SM -SN FEW009 SCT014 OVC025 M03/M03 A2927 RMK AO2 P0000 T10281033 TSNO
PAWI 190703Z AUTO 28005KT 2 1/2SM -SN BR FEW007 OVC016 M03/M03 A2928 RMK AO2 P0000 T10281028 TSNO
PAWI 190653Z AUTO 24008KT 2SM -SN BR FEW007 OVC014 M03/M04 A2928 RMK AO2 PK WND 20026/0554 SLP915 P0003 T10281039 TSNO
PAWI 190646Z AUTO 23009KT 3/4SM -SN BR VV011 M03/M04 A2928 RMK AO2 PK WND 20026/0554 P0003 T10331039 TSNO
PAWI 190639Z AUTO 24008KT 1/2SM SN FZFG VV015 M03/M04 A2928 RMK AO2 PK WND 20026/0554 P0002 T10331039 TSNO
PAWI 190630Z AUTO 24008KT 1 1/2SM -SN BR FEW013 OVC024 M03/M04 A2929 RMK AO2 PK WND 20026/0554 P0000 T10281039 TSNO
PAWI 190622Z AUTO 24008KT 5SM -SN BR FEW015 OVC028 M03/M03 A2929 RMK AO2 PK WND 20026/0554 P0000 T10281033 TSNO
PAWI 190613Z AUTO 21013KT 2SM -SN BR FEW015 OVC024 M04/M04 A2929 RMK AO2 PK WND 20026/0554 P0000 T10441044 TSNO
PAWI 190606Z AUTO 20017KT 1SM -SN BR VV011 M05/M05 A2929 RMK AO2 PK WND 20026/0554 P0000 T10501050 TSNO
PAWI 190553Z AUTO 20024G29KT 1/2SM SN FZFG VV006 M05/M06 A2929 RMK AO2 PK WND 20029/0546 SLP919 P0000 60000 T10501056 11050 21061 58034 TSNO
PAWI 190539Z AUTO 20022KT 1/4SM +SN FZFG VV005 M06/M06 A2931 RMK AO2 PK WND 20029/0509 P0000 T10561061 TSNO
PAWI 190530Z AUTO 20023KT 1/4SM +SN FZFG VV012 M06/M06 A2930 RMK AO2 PK WND 20029/0509 P0000 T10561056 TSNO
PAWI 190519Z AUTO 20022KT 3/4SM -SN BR VV017 M05/M06 A2931 RMK AO2 PK WND 20029/0509 P0000 T10501056 TSNO
PAWI 190456Z AUTO 20022KT 1 3/4SM -SN BR OVC027 M06/M06 A2932 RMK AO2 PK WND 20027/0454 P0000 T10561061 TSNO
PAWI 190453Z AUTO 20022KT 3SM -SN BR OVC031 M06/M06 A2932 RMK AO2 PK WND 20028/0424 SNB0359E21B39 SLP930 P0000 T10561061 TSNO
PAWI 190436Z AUTO 20022KT 5SM BR SCT020 OVC033 M06/M06 A2933 RMK AO2 PK WND 20028/0424 SNB0359E21 P0000 T10561061 TSNO
PAWI 190353Z AUTO 20019KT 9SM FEW012 BKN017 OVC090 M06/M06 A2936 RMK AO2 SNE17 SLP944 P0000 T10561061 TSNO
PAWI 190310Z AUTO 20018KT 5SM -SN BR SCT017 BKN022 OVC029 M06/M07 A2938 RMK AO2 P0000 T10611067 TSNO
PAWI 190253Z AUTO 20019KT 2 1/2SM -SN BR FEW012 SCT017 OVC029 M06/M07 A2939 RMK AO2 SNB08 SLP953 P0000 60000 T10561067 56021 TSNO
PAWI 190249Z AUTO 20018KT 2 1/2SM -SN BR SCT015 SCT020 OVC029 M06/M07 A2939 RMK AO2 SNB08 P0000 TSNO
PAWI 190217Z AUTO 20018KT 1 3/4SM -SN BR SCT011 BKN017 OVC030 M06/M07 A2941 RMK AO2 SNB08 P0000 T10611067 TSNO
PAWI 190153Z AUTO 22013KT 9SM FEW010 BKN023 OVC030 M05/M06 A2942 RMK AO2 SNE22 SLP965 P0000 T10501061 TSNO
PAWI 190125Z AUTO 19012KT 9SM FEW011 OVC022 M06/M07 A2944 RMK AO2 SNE22 P0000 T10611067 TSNO
PAWI 190117Z AUTO 19011KT 2SM -SN BR FEW011 BKN017 OVC024 M06/M07 A2945 RMK AO2 P0000 T10611067 TSNO
PAWI 190100Z AUTO 21013KT 3/4SM -SN BR OVC021 M06/M07 A2945 RMK AO2 P0000 T10561067 TSNO
PAWI 190053Z AUTO 20014KT 2SM -SN BR OVC025 M06/M07 A2945 RMK AO2 SNE24B40 SLP974 P0000 T10611067 TSNO
PAWI 182358Z AUTO 20010KT 4SM -SN BR FEW023 BKN030 OVC050 M06/M08 A2948 RMK AO2 P0000 T10611078 TSNO
PAWI 182353Z AUTO 22007KT 2SM -SN BR BKN026 OVC055 M06/M08 A2949 RMK AO2 SNB24 SLP987 P0000 60003 T10611078 11056 21078 58020 TSNO
PAWI 182331Z AUTO 20009KT 1 3/4SM -SN BR BKN028 BKN041 OVC075 M06/M08 A2950 RMK AO2 SNB24 P0000 T10561078 TSNO
PAWI 182253Z AUTO 18004KT 10SM FEW006 SCT017 OVC070 M06/M07 A2951 RMK AO2 SNE45 SLP994 P0002 T10611072 TSNO
PAWI 182244Z AUTO 00000KT 7SM -SN SCT006 SCT014 OVC070 M06/M07 A2951 RMK AO2 P0002 T10611067 TSNO
PAWI 182240Z AUTO 19005KT 2 1/2SM -SN BR BKN006 BKN014 OVC070 M07/M07 A2952 RMK AO2 P0002 T10671072 TSNO
PAWI 182205Z AUTO 19012KT 1/4SM +SN FZFG VV008 M07/M08 A2953 RMK AO2 P0001 T10671078 TSNO
PAWI 182153Z AUTO 20013KT 1/4SM +SN FZFG BKN013 BKN035 OVC049 M07/M08 A2953 RMK AO2 SLP001 P0000 T10671083 TSNO
PAWI 182146Z AUTO 20013KT 1 1/4SM -SN BR BKN022 BKN035 OVC042 M07/M08 A2953 RMK AO2 P0000 T10671083 TSNO
PAWI 182124Z AUTO 20012KT 3SM -SN BR FEW013 BKN018 OVC040 M07/M08 A2953 RMK AO2 P0000 T10671078 TSNO
PAWI 182120Z AUTO 20013KT 1 1/4SM -SN BR BKN014 OVC020 M07/M08 A2953 RMK AO2 P0000 T10721078 TSNO
PAWI 182100Z AUTO 20009KT 1/4SM SN FZFG BKN009 OVC016 M07/M08 A2955 RMK AO2 P0000 T10671078 TSNO
PAWI 182053Z AUTO 18008KT 1/4SM +SN FZFG BKN011 OVC019 M07/M08 A2955 RMK AO2 SNB12 SLP007 P0001 60001 T10671078 57002 TSNO
PAWI 182027Z AUTO 19008KT 1/2SM SN FZFG BKN019 OVC024 M07/M08 A2955 RMK AO2 SNB12 P0000 T10671078 TSNO
PAWI 182017Z AUTO 19007KT 1 3/4SM -SN BR FEW018 BKN022 OVC085 M07/M08 A2955 RMK AO2 VIS 1/2V5 SNB12 P0000 T10671083 TSNO
PAWI 182015Z AUTO 20006KT 3SM -SN BR BKN022 BKN060 OVC085 M06/M08 A2955 RMK AO2 SNB12 P0000 T10611078 TSNO
PAWI 181953Z AUTO 17004KT 10SM SCT045 BKN060 OVC090 M07/M08 A2955 RMK AO2 SNB06E15 SLP007 P0000 T10671083 TSNO
PAWI 181853Z AUTO VRB03KT 10SM FEW027 FEW048 OVC060 M07/M10 A2955 RMK AO2 SLP008 T10671100 TSNO
PAWI 181753Z AUTO VRB06KT 9SM FEW020 SCT036 OVC050 M07/M08 A2955 RMK AO2 SNE40 SLP009 P0000 60000 T10721083 11056 21072 50000 TSNO
PAWI 181725Z AUTO 06007KT 6SM -SN BR FEW021 BKN040 OVC055 M07/M09 A2956 RMK AO2 P0000 T10671089 TSNO
PAWI 181716Z AUTO 36009KT 2SM -SN BR BKN033 OVC060 M06/M08 A2956 RMK AO2 P0000 T10611083 TSNO
PAWI 181653Z AUTO 02011KT 3SM -SN BKN041 OVC050 M06/M09 A2956 RMK AO2 SNB1555E20B46 SLP010 P0000 T10611089 TSNO
PAWI 181553Z AUTO 04009KT 9SM BKN035 OVC044 M07/M09 A2956 RMK AO2 SNB1455E52 SLP012 P0000 T10671089 TSNO
PAWI 181547Z AUTO 02010KT 3SM -SN BR BKN033 OVC045 M07/M09 A2956 RMK AO2 SNB1455 P0000 TSNO
PAWI 181540Z AUTO 01013KT 2SM -SN BKN028 BKN034 OVC043 M07/M09 A2956 RMK AO2 SNB1455 P0000 T10671094 TSNO
PAWI 181453Z AUTO 01018KT 8SM BKN039 OVC048 M06/M09 A2955 RMK AO2 SNE1359B32E47 SLP009 P0000 60000 T10611094 51005 TSNO
PAWI 181353Z AUTO 35014KT 6SM -SN BKN041 OVC049 M06/M09 A2955 RMK AO2 SLP009 P0000 T10561089 TSNO
PAWI 181253Z AUTO 01014KT 5SM -SN BKN032 OVC050 M06/M09 A2955 RMK AO2 PK WND 36026/1158 SLP007 P0000 T10561094 TSNO
PAWI 181248Z AUTO 01013G22KT 2SM -SN BKN032 OVC050 M06/M09 A2955 RMK AO2 PK WND 36026/1158 VIS 1V5 P0000 TSNO
PAWI 181243Z AUTO 01016G22KT 1 3/4SM -SN BKN031 OVC043 M06/M09 A2955 RMK AO2 PK WND 36026/1158 VIS 1V5 P0000 T10611089 TSNO
PAWI 181153Z AUTO 01022KT 6SM -SN FEW028 OVC037 M06/M10 A2954 RMK AO2 PK WND 36026/1126 SNB37 SLP004 P0000 60000 70001 T10561100 11017 21056 53016 TSNO
PAWI 181053Z AUTO 36020G25KT 10SM OVC040 M04/M10 A2952 RMK AO2 PK WND 36026/1042 SNB28E43 SLP997 P0000 T10441100 TSNO
PAWI 180953Z AUTO 01018KT 10SM BKN048 M04/M09 A2951 RMK AO2 PK WND 01029/0920 SNB03E18 SLP994 P0000 T10441089 TSNO
PAWI 180853Z AUTO 02017G28KT 9SM FEW022 FEW030 OVC055 M04/M08 A2949 RMK AO2 PK WND 36032/0827 SNE37 SLP987 P0000 60000 T10441078 400001044 53022 TSNO
PAWI 180841Z AUTO 02021KT 6SM HZ FEW022 BKN037 OVC055 M04/M07 A2948 RMK AO2 PK WND 36032/0827 SNE37 P0000 T10391067 TSNO
PAWI 180832Z AUTO 01021G32KT 2SM -SN FEW020 BKN036 OVC050 M04/M07 A2948 RMK AO2 PK WND 36032/0827 P0000 T10391067 TSNO
PAWI 180753Z AUTO 02022G30KT 3SM -SN FEW025 SCT035 OVC045 M03/M06 A2946 RMK AO2 PK WND 02033/0727 SNB0654E17B42 SLP976 P0000 T10331061 TSNO
PAWI 180749Z AUTO 01025G30KT 2 1/2SM -SN FEW025 SCT035 OVC045 M03/M06 A2945 RMK AO2 PK WND 02033/0727 VIS 1 1/2V4 SNB0654E17B42 P0000 TSNO
PAWI 180728Z AUTO 02026G33KT 4SM HZ OVC037 M03/M06 A2944 RMK AO2 PK WND 02033/0727 SNB0654E17 P0000 T10331061 TSNO
PAWI 180713Z AUTO 02023G31KT 3SM -SN BR FEW020 BKN026 OVC050 M03/M06 A2944 RMK AO2 PK WND 02031/0704 SNB0654 P0000 T10331056 TSNO
PAWI 180657Z AUTO 01023G29KT 1 1/2SM -SN BR FEW015 BKN029 BKN049 M03/M04 A2943 RMK AO2 PK WND 01028/0656 SNB54 P0000 T10331044 TSNO
PAWI 180655Z AUTO 01023G29KT 2SM -SN BR FEW008 BKN037 BKN049 M03/M04 A2943 RMK AO2 PK WND 02027/0655 SNB54 P0000 T10281044 TSNO
PAWI 180653Z AUTO 01024G29KT 4SM BR SCT028 BKN037 BKN050 M03/M05 A2943 RMK AO2 PK WND 02029/0653 SNE37 SLP966 P0000 T10281050 TSNO
PAWI 180629Z AUTO 01022G28KT 3SM -SN FEW029 BKN035 OVC045 M02/M06 A2942 RMK AO2 PK WND 36029/0618 P0000 T10221056 TSNO
PAWI 180627Z AUTO 01021G29KT 2 1/2SM -SN BKN029 OVC042 M02/M05 A2942 RMK AO2 PK WND 36029/0618 VIS 1 1/2V5 P0000 T10221050 TSNO
PAWI 180616Z AUTO 36020G27KT 4SM -SN BKN027 BKN041 OVC055 M02/M06 A2941 RMK AO2 PK WND 35028/0604 P0000 T10171056 TSNO
PAWI 180608Z AUTO 34023G28KT 2 1/2SM -SN SCT023 BKN043 OVC050 M02/M05 A2941 RMK AO2 PK WND 35028/0604 VIS 1 3/4V4 P0000 T10221050 TSNO
PAWI 180603Z AUTO 35021G27KT 1SM -SN BR BKN016 BKN050 M03/M04 A2941 RMK AO2 PK WND 34027/0600 P0000 T10281039 TSNO
PAWI 180557Z AUTO 36019G32KT 3/4SM -SN BR SCT016 BKN055 M03/M04 A2941 RMK AO2 P0000 T10331044 TSNO
PAWI 180553Z AUTO 36021G32KT 2SM -SN BR FEW020 SCT029 BKN050 M03/M04 A2941 RMK AO2 PK WND 35032/0548 SLP959 P0000 60000 T10281044 11006 21028 53002 TSNO
PAWI 180532Z AUTO 35023G27KT 3SM -SN BR FEW023 BKN030 OVC055 M02/M04 A2940 RMK AO2 PK WND 34028/0518 P0000 T10171039 TSNO
PAWI 180523Z AUTO 34022G28KT 2SM -SN BR FEW021 BKN027 OVC055 M02/M04 A2940 RMK AO2 PK WND 34028/0518 P0000 T10221044 TSNO
PAWI 180453Z AUTO 34016KT 4SM -SN FEW034 BKN042 OVC050 M02/M05 A2940 RMK AO2 PK WND 33026/0404 SNB0358E24B47 SLP956 P0000 T10171050 TSNO
PAWI 180353Z AUTO 33018KT 10SM BKN037 OVC043 M01/M07 A2939 RMK AO2 SNB10E20B41E43 SLP954 P0000 T10111067 TSNO
PAWI 180253Z AUTO 34019KT 10SM OVC037 M02/M08 A2940 RMK AO2 PK WND 33029/0216 SLP958 60000 T10171078 55000 TSNO
PAWI 180153Z AUTO 34020G26KT 5SM HZ FEW025 BKN041 OVC050 M02/M06 A2940 RMK AO2 PK WND 34027/0111 SNE01B13E31 SLP955 P0000 T10171056 TSNO
PAWI 180129Z AUTO 34017KT 5SM -SN FEW023 SCT031 OVC046 M01/M05 A2940 RMK AO2 PK WND 34027/0111 SNE01B13 P0000 T10111050 TSNO
PAWI 180117Z AUTO 34019G27KT 2 1/2SM -SN FEW017 BKN031 OVC040 M01/M04 A2940 RMK AO2 PK WND 34027/0111 SNE01B13 P0000 T10111044 TSNO
PAWI 180106Z AUTO 34015KT 9SM FEW019 BKN040 OVC047 M01/M05 A2940 RMK AO2 SNE01 P0000 T10111050 TSNO
PAWI 180053Z AUTO 34015KT 7SM -SN BKN017 BKN026 OVC034 M01/M03 A2940 RMK AO2 PK WND 35026/0022 SNE48B49 SLP957 P0000 T10111033 TSNO
PAWI 180048Z AUTO 32011G16KT 8SM FEW012 BKN019 OVC044 M01/M03 A2940 RMK AO2 PK WND 35026/0022 SNE48 P0000 TSNO